sensor_id;sensor_type;location;lat;lon;timestamp;P1;durP1;ratioP1;P2;durP2;ratioP2
7605;SDS011;3844;53.360;9.738;2023-06-14T00:01:52;6.82;;;2.40;;
7605;SDS011;3844;53.360;9.738;2023-06-14T00:03:53;5.93;;;2.30;;
7605;SDS011;3844;53.360;9.738;2023-06-14T00:05:54;6.75;;;2.15;;
7605;SDS011;3844;53.360;9.738;2023-06-14T00:07:55;5.53;;;2.28;;
7605;SDS011;3844;53.360;9.738;2023-06-14T00:09:55;6.20;;;2.20;;
7605;SDS011;3844;53.360;9.738;2023-06-14T00:11:56;8.10;;;2.33;;
7605;SDS011;3844;53.360;9.738;2023-06-14T00:13:57;5.90;;;2.22;;
7605;SDS011;3844;53.360;9.738;2023-06-14T00:15:57;7.07;;;2.30;;
7605;SDS011;3844;53.360;9.738;2023-06-14T00:17:58;5.68;;;2.50;;
7605;SDS011;3844;53.360;9.738;2023-06-14T00:20:03;5.07;;;1.80;;
7605;SDS011;3844;53.360;9.738;2023-06-14T00:22:07;6.32;;;2.33;;
7605;SDS011;3844;53.360;9.738;2023-06-14T00:24:08;6.53;;;2.30;;
7605;SDS011;3844;53.360;9.738;2023-06-14T00:26:09;6.72;;;2.45;;
7605;SDS011;3844;53.360;9.738;2023-06-14T00:28:09;6.00;;;2.45;;
7605;SDS011;3844;53.360;9.738;2023-06-14T00:30:10;6.75;;;2.50;;
7605;SDS011;3844;53.360;9.738;2023-06-14T00:32:11;7.07;;;2.22;;
7605;SDS011;3844;53.360;9.738;2023-06-14T00:34:12;7.07;;;2.33;;
7605;SDS011;3844;53.360;9.738;2023-06-14T00:36:13;5.50;;;2.30;;
7605;SDS011;3844;53.360;9.738;2023-06-14T00:38:13;6.35;;;2.58;;
7605;SDS011;3844;53.360;9.738;2023-06-14T00:40:14;5.28;;;2.20;;
7605;SDS011;3844;53.360;9.738;2023-06-14T00:42:27;6.95;;;2.58;;
7605;SDS011;3844;53.360;9.738;2023-06-14T00:44:28;6.70;;;2.53;;
7605;SDS011;3844;53.360;9.738;2023-06-14T00:46:29;6.38;;;2.30;;
7605;SDS011;3844;53.360;9.738;2023-06-14T00:48:30;6.88;;;2.50;;
7605;SDS011;3844;53.360;9.738;2023-06-14T00:50:32;6.80;;;2.42;;
7605;SDS011;3844;53.360;9.738;2023-06-14T00:52:33;6.88;;;2.55;;
7605;SDS011;3844;53.360;9.738;2023-06-14T00:54:34;6.50;;;2.53;;
7605;SDS011;3844;53.360;9.738;2023-06-14T00:56:35;6.85;;;2.50;;
7605;SDS011;3844;53.360;9.738;2023-06-14T00:58:36;5.80;;;2.40;;
7605;SDS011;3844;53.360;9.738;2023-06-14T01:00:37;5.20;;;2.20;;
7605;SDS011;3844;53.360;9.738;2023-06-14T01:02:38;4.95;;;2.42;;
7605;SDS011;3844;53.360;9.738;2023-06-14T01:04:39;7.20;;;2.60;;
7605;SDS011;3844;53.360;9.738;2023-06-14T01:06:44;6.28;;;2.40;;
7605;SDS011;3844;53.360;9.738;2023-06-14T01:08:51;4.53;;;2.40;;
7605;SDS011;3844;53.360;9.738;2023-06-14T01:11:05;6.80;;;2.38;;
7605;SDS011;3844;53.360;9.738;2023-06-14T01:13:18;5.03;;;2.30;;
7605;SDS011;3844;53.360;9.738;2023-06-14T01:15:21;6.03;;;2.72;;
7605;SDS011;3844;53.360;9.738;2023-06-14T01:17:23;5.70;;;2.17;;
7605;SDS011;3844;53.360;9.738;2023-06-14T01:19:26;6.18;;;2.50;;
7605;SDS011;3844;53.360;9.738;2023-06-14T01:21:28;5.18;;;2.50;;
7605;SDS011;3844;53.360;9.738;2023-06-14T01:23:29;6.63;;;2.47;;
7605;SDS011;3844;53.360;9.738;2023-06-14T01:25:32;6.05;;;2.50;;
7605;SDS011;3844;53.360;9.738;2023-06-14T01:27:33;6.53;;;2.55;;
7605;SDS011;3844;53.360;9.738;2023-06-14T01:29:34;7.20;;;2.50;;
7605;SDS011;3844;53.360;9.738;2023-06-14T01:31:36;5.65;;;2.47;;
7605;SDS011;3844;53.360;9.738;2023-06-14T01:33:41;5.90;;;2.50;;
7605;SDS011;3844;53.360;9.738;2023-06-14T01:35:43;5.65;;;2.45;;
7605;SDS011;3844;53.360;9.738;2023-06-14T01:39:47;7.10;;;2.80;;
7605;SDS011;3844;53.360;9.738;2023-06-14T01:41:52;6.78;;;2.58;;
7605;SDS011;3844;53.360;9.738;2023-06-14T01:43:53;6.45;;;2.50;;
7605;SDS011;3844;53.360;9.738;2023-06-14T01:45:55;7.20;;;2.75;;
7605;SDS011;3844;53.360;9.738;2023-06-14T01:47:58;7.97;;;2.60;;
7605;SDS011;3844;53.360;9.738;2023-06-14T01:50:00;6.43;;;2.50;;
7605;SDS011;3844;53.360;9.738;2023-06-14T01:52:02;7.72;;;2.92;;
7605;SDS011;3844;53.360;9.738;2023-06-14T01:54:03;7.13;;;3.00;;
7605;SDS011;3844;53.360;9.738;2023-06-14T01:56:04;6.30;;;2.42;;
7605;SDS011;3844;53.360;9.738;2023-06-14T01:58:05;6.95;;;2.85;;
7605;SDS011;3844;53.360;9.738;2023-06-14T02:00:06;6.63;;;2.60;;
7605;SDS011;3844;53.360;9.738;2023-06-14T02:02:10;7.53;;;2.55;;
7605;SDS011;3844;53.360;9.738;2023-06-14T02:04:11;6.35;;;2.60;;
7605;SDS011;3844;53.360;9.738;2023-06-14T02:06:11;5.57;;;2.53;;
7605;SDS011;3844;53.360;9.738;2023-06-14T02:08:12;8.48;;;2.80;;
7605;SDS011;3844;53.360;9.738;2023-06-14T02:10:13;6.47;;;2.58;;
7605;SDS011;3844;53.360;9.738;2023-06-14T02:12:15;6.85;;;2.80;;
7605;SDS011;3844;53.360;9.738;2023-06-14T02:14:16;7.50;;;2.63;;
7605;SDS011;3844;53.360;9.738;2023-06-14T02:16:17;9.23;;;2.80;;
7605;SDS011;3844;53.360;9.738;2023-06-14T02:18:17;8.10;;;2.50;;
7605;SDS011;3844;53.360;9.738;2023-06-14T02:20:18;5.55;;;2.53;;
7605;SDS011;3844;53.360;9.738;2023-06-14T02:22:19;7.10;;;2.60;;
7605;SDS011;3844;53.360;9.738;2023-06-14T02:24:21;6.80;;;2.90;;
7605;SDS011;3844;53.360;9.738;2023-06-14T02:26:23;5.65;;;2.42;;
7605;SDS011;3844;53.360;9.738;2023-06-14T02:28:24;6.65;;;2.50;;
7605;SDS011;3844;53.360;9.738;2023-06-14T02:30:25;5.80;;;2.58;;
7605;SDS011;3844;53.360;9.738;2023-06-14T02:32:26;6.30;;;2.72;;
7605;SDS011;3844;53.360;9.738;2023-06-14T02:34:27;9.88;;;3.00;;
7605;SDS011;3844;53.360;9.738;2023-06-14T02:36:28;8.23;;;2.50;;
7605;SDS011;3844;53.360;9.738;2023-06-14T02:38:31;7.18;;;2.80;;
7605;SDS011;3844;53.360;9.738;2023-06-14T02:40:32;5.82;;;2.42;;
7605;SDS011;3844;53.360;9.738;2023-06-14T02:42:33;6.80;;;2.55;;
7605;SDS011;3844;53.360;9.738;2023-06-14T02:44:34;7.25;;;2.67;;
7605;SDS011;3844;53.360;9.738;2023-06-14T02:46:36;6.35;;;2.47;;
7605;SDS011;3844;53.360;9.738;2023-06-14T02:48:36;5.75;;;2.50;;
7605;SDS011;3844;53.360;9.738;2023-06-14T02:50:37;8.18;;;2.90;;
7605;SDS011;3844;53.360;9.738;2023-06-14T02:52:38;7.32;;;2.45;;
7605;SDS011;3844;53.360;9.738;2023-06-14T02:54:38;5.45;;;2.58;;
7605;SDS011;3844;53.360;9.738;2023-06-14T02:56:40;7.25;;;2.97;;
7605;SDS011;3844;53.360;9.738;2023-06-14T02:58:41;7.35;;;2.70;;
7605;SDS011;3844;53.360;9.738;2023-06-14T03:00:41;6.95;;;2.75;;
7605;SDS011;3844;53.360;9.738;2023-06-14T03:02:43;5.70;;;2.53;;
7605;SDS011;3844;53.360;9.738;2023-06-14T03:04:44;6.05;;;2.50;;
7605;SDS011;3844;53.360;9.738;2023-06-14T03:06:46;6.50;;;2.50;;
7605;SDS011;3844;53.360;9.738;2023-06-14T03:10:51;5.00;;;2.42;;
7605;SDS011;3844;53.360;9.738;2023-06-14T03:12:52;7.38;;;2.85;;
7605;SDS011;3844;53.360;9.738;2023-06-14T03:14:53;5.93;;;2.63;;
7605;SDS011;3844;53.360;9.738;2023-06-14T03:18:57;5.93;;;2.35;;
7605;SDS011;3844;53.360;9.738;2023-06-14T03:20:58;6.57;;;2.50;;
7605;SDS011;3844;53.360;9.738;2023-06-14T03:23:02;4.95;;;2.30;;
7605;SDS011;3844;53.360;9.738;2023-06-14T03:25:03;6.50;;;2.40;;
7605;SDS011;3844;53.360;9.738;2023-06-14T03:27:04;4.65;;;2.30;;
7605;SDS011;3844;53.360;9.738;2023-06-14T03:29:05;6.03;;;2.65;;
7605;SDS011;3844;53.360;9.738;2023-06-14T03:31:06;5.45;;;2.33;;
7605;SDS011;3844;53.360;9.738;2023-06-14T03:33:07;6.70;;;2.67;;
7605;SDS011;3844;53.360;9.738;2023-06-14T03:35:08;5.95;;;2.70;;
7605;SDS011;3844;53.360;9.738;2023-06-14T03:37:16;6.00;;;2.47;;
7605;SDS011;3844;53.360;9.738;2023-06-14T03:39:17;5.93;;;2.40;;
7605;SDS011;3844;53.360;9.738;2023-06-14T03:41:18;5.30;;;2.53;;
7605;SDS011;3844;53.360;9.738;2023-06-14T03:43:19;8.15;;;2.92;;
7605;SDS011;3844;53.360;9.738;2023-06-14T03:45:19;6.43;;;2.90;;
7605;SDS011;3844;53.360;9.738;2023-06-14T03:47:20;5.43;;;2.65;;
7605;SDS011;3844;53.360;9.738;2023-06-14T03:49:21;6.25;;;2.78;;
7605;SDS011;3844;53.360;9.738;2023-06-14T03:51:22;5.60;;;2.58;;
7605;SDS011;3844;53.360;9.738;2023-06-14T03:53:22;6.38;;;2.90;;
7605;SDS011;3844;53.360;9.738;2023-06-14T03:55:23;4.95;;;2.42;;
7605;SDS011;3844;53.360;9.738;2023-06-14T03:57:25;5.47;;;2.60;;
7605;SDS011;3844;53.360;9.738;2023-06-14T03:59:26;5.03;;;2.30;;
7605;SDS011;3844;53.360;9.738;2023-06-14T04:01:27;7.03;;;2.70;;
7605;SDS011;3844;53.360;9.738;2023-06-14T04:03:29;8.40;;;3.10;;
7605;SDS011;3844;53.360;9.738;2023-06-14T04:05:30;7.05;;;2.75;;
7605;SDS011;3844;53.360;9.738;2023-06-14T04:07:31;7.32;;;2.90;;
7605;SDS011;3844;53.360;9.738;2023-06-14T04:09:32;6.47;;;2.58;;
7605;SDS011;3844;53.360;9.738;2023-06-14T04:11:33;5.70;;;2.55;;
7605;SDS011;3844;53.360;9.738;2023-06-14T04:13:34;5.85;;;2.60;;
7605;SDS011;3844;53.360;9.738;2023-06-14T04:15:36;4.95;;;2.50;;
7605;SDS011;3844;53.360;9.738;2023-06-14T04:17:37;5.82;;;2.80;;
7605;SDS011;3844;53.360;9.738;2023-06-14T04:19:38;6.85;;;2.67;;
7605;SDS011;3844;53.360;9.738;2023-06-14T04:21:38;7.57;;;2.60;;
7605;SDS011;3844;53.360;9.738;2023-06-14T04:23:39;6.50;;;2.70;;
7605;SDS011;3844;53.360;9.738;2023-06-14T04:25:44;8.10;;;2.88;;
7605;SDS011;3844;53.360;9.738;2023-06-14T04:27:49;6.43;;;2.80;;
7605;SDS011;3844;53.360;9.738;2023-06-14T04:29:50;7.07;;;3.08;;
7605;SDS011;3844;53.360;9.738;2023-06-14T04:31:56;7.43;;;3.10;;
7605;SDS011;3844;53.360;9.738;2023-06-14T04:33:59;6.85;;;3.03;;
7605;SDS011;3844;53.360;9.738;2023-06-14T04:36:00;6.88;;;2.85;;
7605;SDS011;3844;53.360;9.738;2023-06-14T04:38:01;6.30;;;2.90;;
7605;SDS011;3844;53.360;9.738;2023-06-14T04:40:04;9.30;;;3.05;;
7605;SDS011;3844;53.360;9.738;2023-06-14T04:42:06;6.25;;;2.95;;
7605;SDS011;3844;53.360;9.738;2023-06-14T04:44:07;5.80;;;2.97;;
7605;SDS011;3844;53.360;9.738;2023-06-14T04:46:10;5.95;;;3.13;;
7605;SDS011;3844;53.360;9.738;2023-06-14T04:48:11;6.65;;;2.70;;
7605;SDS011;3844;53.360;9.738;2023-06-14T04:50:12;7.00;;;2.90;;
7605;SDS011;3844;53.360;9.738;2023-06-14T04:52:13;6.88;;;3.30;;
7605;SDS011;3844;53.360;9.738;2023-06-14T04:54:14;6.72;;;2.80;;
7605;SDS011;3844;53.360;9.738;2023-06-14T04:56:15;8.57;;;3.03;;
7605;SDS011;3844;53.360;9.738;2023-06-14T04:58:16;6.55;;;2.67;;
7605;SDS011;3844;53.360;9.738;2023-06-14T05:00:17;8.20;;;2.72;;
7605;SDS011;3844;53.360;9.738;2023-06-14T05:02:18;7.03;;;2.75;;
7605;SDS011;3844;53.360;9.738;2023-06-14T05:04:19;7.50;;;3.03;;
7605;SDS011;3844;53.360;9.738;2023-06-14T05:06:22;7.93;;;2.70;;
7605;SDS011;3844;53.360;9.738;2023-06-14T05:08:23;8.07;;;3.00;;
7605;SDS011;3844;53.360;9.738;2023-06-14T05:10:24;8.35;;;2.90;;
7605;SDS011;3844;53.360;9.738;2023-06-14T05:12:25;9.10;;;2.80;;
7605;SDS011;3844;53.360;9.738;2023-06-14T05:14:26;7.18;;;2.97;;
7605;SDS011;3844;53.360;9.738;2023-06-14T05:16:26;9.10;;;3.10;;
7605;SDS011;3844;53.360;9.738;2023-06-14T05:18:27;5.75;;;2.83;;
7605;SDS011;3844;53.360;9.738;2023-06-14T05:20:28;6.97;;;2.72;;
7605;SDS011;3844;53.360;9.738;2023-06-14T05:22:29;7.72;;;3.10;;
7605;SDS011;3844;53.360;9.738;2023-06-14T05:24:30;6.30;;;2.80;;
7605;SDS011;3844;53.360;9.738;2023-06-14T05:26:32;6.07;;;2.80;;
7605;SDS011;3844;53.360;9.738;2023-06-14T05:28:33;7.18;;;2.88;;
7605;SDS011;3844;53.360;9.738;2023-06-14T05:30:34;8.68;;;2.78;;
7605;SDS011;3844;53.360;9.738;2023-06-14T05:32:35;5.47;;;2.45;;
7605;SDS011;3844;53.360;9.738;2023-06-14T05:34:36;5.53;;;2.63;;
7605;SDS011;3844;53.360;9.738;2023-06-14T05:36:37;6.63;;;2.47;;
7605;SDS011;3844;53.360;9.738;2023-06-14T05:38:38;9.60;;;2.70;;
7605;SDS011;3844;53.360;9.738;2023-06-14T05:40:38;6.28;;;2.60;;
7605;SDS011;3844;53.360;9.738;2023-06-14T05:42:39;6.07;;;2.70;;
7605;SDS011;3844;53.360;9.738;2023-06-14T05:44:40;7.80;;;2.63;;
7605;SDS011;3844;53.360;9.738;2023-06-14T05:46:40;6.78;;;2.85;;
7605;SDS011;3844;53.360;9.738;2023-06-14T05:48:41;7.32;;;2.80;;
7605;SDS011;3844;53.360;9.738;2023-06-14T05:50:42;6.00;;;2.78;;
7605;SDS011;3844;53.360;9.738;2023-06-14T05:52:42;7.70;;;2.53;;
7605;SDS011;3844;53.360;9.738;2023-06-14T05:54:43;8.27;;;2.88;;
7605;SDS011;3844;53.360;9.738;2023-06-14T05:56:44;7.18;;;2.80;;
7605;SDS011;3844;53.360;9.738;2023-06-14T05:58:45;6.55;;;2.63;;
7605;SDS011;3844;53.360;9.738;2023-06-14T06:00:46;5.25;;;2.78;;
7605;SDS011;3844;53.360;9.738;2023-06-14T06:02:47;6.28;;;2.90;;
7605;SDS011;3844;53.360;9.738;2023-06-14T06:04:47;6.95;;;2.53;;
7605;SDS011;3844;53.360;9.738;2023-06-14T06:06:48;6.32;;;2.80;;
7605;SDS011;3844;53.360;9.738;2023-06-14T06:08:49;7.63;;;2.58;;
7605;SDS011;3844;53.360;9.738;2023-06-14T06:10:50;7.45;;;2.70;;
7605;SDS011;3844;53.360;9.738;2023-06-14T06:12:50;6.20;;;2.58;;
7605;SDS011;3844;53.360;9.738;2023-06-14T06:14:52;8.63;;;2.80;;
7605;SDS011;3844;53.360;9.738;2023-06-14T06:16:53;8.23;;;2.70;;
7605;SDS011;3844;53.360;9.738;2023-06-14T06:18:54;9.00;;;2.60;;
7605;SDS011;3844;53.360;9.738;2023-06-14T06:20:55;6.55;;;2.60;;
7605;SDS011;3844;53.360;9.738;2023-06-14T06:22:56;6.35;;;2.60;;
7605;SDS011;3844;53.360;9.738;2023-06-14T06:24:57;6.32;;;2.50;;
7605;SDS011;3844;53.360;9.738;2023-06-14T06:26:58;5.47;;;2.30;;
7605;SDS011;3844;53.360;9.738;2023-06-14T06:28:58;6.53;;;2.40;;
7605;SDS011;3844;53.360;9.738;2023-06-14T06:30:59;5.88;;;2.50;;
7605;SDS011;3844;53.360;9.738;2023-06-14T06:33:00;5.70;;;2.45;;
7605;SDS011;3844;53.360;9.738;2023-06-14T06:35:01;5.30;;;2.45;;
7605;SDS011;3844;53.360;9.738;2023-06-14T06:37:03;5.85;;;2.28;;
7605;SDS011;3844;53.360;9.738;2023-06-14T06:39:04;4.97;;;2.17;;
7605;SDS011;3844;53.360;9.738;2023-06-14T06:41:10;6.47;;;2.40;;
7605;SDS011;3844;53.360;9.738;2023-06-14T06:43:10;7.55;;;2.47;;
7605;SDS011;3844;53.360;9.738;2023-06-14T06:45:13;4.53;;;2.20;;
7605;SDS011;3844;53.360;9.738;2023-06-14T06:47:14;4.68;;;2.30;;
7605;SDS011;3844;53.360;9.738;2023-06-14T06:49:15;6.55;;;2.40;;
7605;SDS011;3844;53.360;9.738;2023-06-14T06:51:15;5.38;;;2.30;;
7605;SDS011;3844;53.360;9.738;2023-06-14T06:53:16;5.78;;;2.03;;
7605;SDS011;3844;53.360;9.738;2023-06-14T06:55:18;7.17;;;2.10;;
7605;SDS011;3844;53.360;9.738;2023-06-14T06:57:19;4.60;;;2.05;;
7605;SDS011;3844;53.360;9.738;2023-06-14T06:59:20;5.82;;;2.10;;
7605;SDS011;3844;53.360;9.738;2023-06-14T07:01:21;7.68;;;2.10;;
7605;SDS011;3844;53.360;9.738;2023-06-14T07:03:21;5.22;;;2.10;;
7605;SDS011;3844;53.360;9.738;2023-06-14T07:05:23;6.88;;;1.88;;
7605;SDS011;3844;53.360;9.738;2023-06-14T07:07:24;3.90;;;1.80;;
7605;SDS011;3844;53.360;9.738;2023-06-14T07:09:25;5.43;;;2.10;;
7605;SDS011;3844;53.360;9.738;2023-06-14T07:11:25;5.70;;;2.10;;
7605;SDS011;3844;53.360;9.738;2023-06-14T07:13:26;4.65;;;1.98;;
7605;SDS011;3844;53.360;9.738;2023-06-14T07:15:27;5.38;;;2.00;;
7605;SDS011;3844;53.360;9.738;2023-06-14T07:17:27;6.05;;;2.17;;
7605;SDS011;3844;53.360;9.738;2023-06-14T07:19:28;5.30;;;2.00;;
7605;SDS011;3844;53.360;9.738;2023-06-14T07:21:29;5.65;;;2.05;;
7605;SDS011;3844;53.360;9.738;2023-06-14T07:23:30;4.40;;;2.03;;
7605;SDS011;3844;53.360;9.738;2023-06-14T07:25:31;4.30;;;1.90;;
7605;SDS011;3844;53.360;9.738;2023-06-14T07:27:32;5.18;;;2.03;;
7605;SDS011;3844;53.360;9.738;2023-06-14T07:29:32;4.82;;;1.92;;
7605;SDS011;3844;53.360;9.738;2023-06-14T07:31:33;5.57;;;1.92;;
7605;SDS011;3844;53.360;9.738;2023-06-14T07:33:34;6.53;;;2.10;;
7605;SDS011;3844;53.360;9.738;2023-06-14T07:35:34;4.90;;;2.05;;
7605;SDS011;3844;53.360;9.738;2023-06-14T07:37:35;5.15;;;2.05;;
7605;SDS011;3844;53.360;9.738;2023-06-14T07:39:36;4.07;;;1.80;;
7605;SDS011;3844;53.360;9.738;2023-06-14T07:41:37;4.53;;;2.00;;
7605;SDS011;3844;53.360;9.738;2023-06-14T07:43:37;4.80;;;2.08;;
7605;SDS011;3844;53.360;9.738;2023-06-14T07:45:38;4.32;;;2.13;;
7605;SDS011;3844;53.360;9.738;2023-06-14T07:47:39;3.72;;;1.85;;
7605;SDS011;3844;53.360;9.738;2023-06-14T07:49:39;4.00;;;1.83;;
7605;SDS011;3844;53.360;9.738;2023-06-14T07:51:41;4.60;;;1.95;;
7605;SDS011;3844;53.360;9.738;2023-06-14T07:53:41;6.60;;;1.88;;
7605;SDS011;3844;53.360;9.738;2023-06-14T07:55:42;4.57;;;1.73;;
7605;SDS011;3844;53.360;9.738;2023-06-14T07:57:43;6.13;;;1.98;;
7605;SDS011;3844;53.360;9.738;2023-06-14T07:59:44;4.97;;;1.65;;
7605;SDS011;3844;53.360;9.738;2023-06-14T08:01:45;4.78;;;1.80;;
7605;SDS011;3844;53.360;9.738;2023-06-14T08:03:47;4.22;;;1.60;;
7605;SDS011;3844;53.360;9.738;2023-06-14T08:05:47;5.43;;;1.83;;
7605;SDS011;3844;53.360;9.738;2023-06-14T08:07:48;4.50;;;2.00;;
7605;SDS011;3844;53.360;9.738;2023-06-14T08:09:49;5.10;;;1.90;;
7605;SDS011;3844;53.360;9.738;2023-06-14T08:11:50;4.60;;;1.80;;
7605;SDS011;3844;53.360;9.738;2023-06-14T08:13:51;4.35;;;1.90;;
7605;SDS011;3844;53.360;9.738;2023-06-14T08:15:52;5.72;;;2.10;;
7605;SDS011;3844;53.360;9.738;2023-06-14T08:17:53;4.00;;;1.88;;
7605;SDS011;3844;53.360;9.738;2023-06-14T08:19:53;5.53;;;2.13;;
7605;SDS011;3844;53.360;9.738;2023-06-14T08:21:57;7.03;;;1.92;;
7605;SDS011;3844;53.360;9.738;2023-06-14T08:23:58;4.80;;;1.90;;
7605;SDS011;3844;53.360;9.738;2023-06-14T08:25:59;5.25;;;1.90;;
7605;SDS011;3844;53.360;9.738;2023-06-14T08:28:01;5.57;;;2.00;;
7605;SDS011;3844;53.360;9.738;2023-06-14T08:30:02;5.97;;;1.98;;
7605;SDS011;3844;53.360;9.738;2023-06-14T08:32:03;5.57;;;2.17;;
7605;SDS011;3844;53.360;9.738;2023-06-14T08:34:04;4.28;;;2.00;;
7605;SDS011;3844;53.360;9.738;2023-06-14T08:36:06;4.35;;;2.15;;
7605;SDS011;3844;53.360;9.738;2023-06-14T08:38:06;5.90;;;1.83;;
7605;SDS011;3844;53.360;9.738;2023-06-14T08:40:20;5.07;;;1.90;;
7605;SDS011;3844;53.360;9.738;2023-06-14T08:42:22;4.88;;;1.90;;
7605;SDS011;3844;53.360;9.738;2023-06-14T08:44:24;3.78;;;2.00;;
7605;SDS011;3844;53.360;9.738;2023-06-14T08:46:25;5.18;;;1.92;;
7605;SDS011;3844;53.360;9.738;2023-06-14T08:48:27;5.05;;;2.00;;
7605;SDS011;3844;53.360;9.738;2023-06-14T08:50:28;5.95;;;2.13;;
7605;SDS011;3844;53.360;9.738;2023-06-14T08:56:43;6.25;;;1.95;;
7605;SDS011;3844;53.360;9.738;2023-06-14T08:58:44;6.90;;;2.08;;
7605;SDS011;3844;53.360;9.738;2023-06-14T09:00:48;4.63;;;2.00;;
7605;SDS011;3844;53.360;9.738;2023-06-14T09:02:50;4.95;;;1.70;;
7605;SDS011;3844;53.360;9.738;2023-06-14T09:04:55;6.93;;;2.13;;
7605;SDS011;3844;53.360;9.738;2023-06-14T09:06:59;5.95;;;2.00;;
7605;SDS011;3844;53.360;9.738;2023-06-14T09:09:00;7.43;;;2.20;;
7605;SDS011;3844;53.360;9.738;2023-06-14T09:11:02;6.57;;;2.33;;
7605;SDS011;3844;53.360;9.738;2023-06-14T09:13:03;4.10;;;1.85;;
7605;SDS011;3844;53.360;9.738;2023-06-14T09:15:04;5.70;;;2.20;;
7605;SDS011;3844;53.360;9.738;2023-06-14T09:17:06;5.80;;;2.00;;
7605;SDS011;3844;53.360;9.738;2023-06-14T09:19:07;6.10;;;2.30;;
7605;SDS011;3844;53.360;9.738;2023-06-14T09:21:08;6.53;;;2.07;;
7605;SDS011;3844;53.360;9.738;2023-06-14T09:23:10;5.53;;;2.20;;
7605;SDS011;3844;53.360;9.738;2023-06-14T09:25:11;6.55;;;2.10;;
7605;SDS011;3844;53.360;9.738;2023-06-14T09:27:15;7.28;;;2.00;;
7605;SDS011;3844;53.360;9.738;2023-06-14T09:29:16;7.30;;;2.03;;
7605;SDS011;3844;53.360;9.738;2023-06-14T09:31:18;6.45;;;2.10;;
7605;SDS011;3844;53.360;9.738;2023-06-14T09:33:20;5.10;;;2.30;;
7605;SDS011;3844;53.360;9.738;2023-06-14T09:35:21;6.30;;;2.38;;
7605;SDS011;3844;53.360;9.738;2023-06-14T09:37:29;7.43;;;2.30;;
7605;SDS011;3844;53.360;9.738;2023-06-14T09:39:30;4.60;;;2.10;;
7605;SDS011;3844;53.360;9.738;2023-06-14T09:41:35;6.22;;;2.20;;
7605;SDS011;3844;53.360;9.738;2023-06-14T09:43:35;7.13;;;2.30;;
7605;SDS011;3844;53.360;9.738;2023-06-14T09:45:38;7.50;;;2.25;;
7605;SDS011;3844;53.360;9.738;2023-06-14T09:47:40;6.18;;;2.10;;
7605;SDS011;3844;53.360;9.738;2023-06-14T09:49:42;5.53;;;2.17;;
7605;SDS011;3844;53.360;9.738;2023-06-14T09:51:43;7.70;;;2.22;;
7605;SDS011;3844;53.360;9.738;2023-06-14T09:53:47;4.40;;;2.10;;
7605;SDS011;3844;53.360;9.738;2023-06-14T09:57:51;5.28;;;2.00;;
7605;SDS011;3844;53.360;9.738;2023-06-14T09:59:56;7.07;;;1.90;;
7605;SDS011;3844;53.360;9.738;2023-06-14T10:02:03;5.45;;;2.00;;
7605;SDS011;3844;53.360;9.738;2023-06-14T10:04:09;8.27;;;2.20;;
7605;SDS011;3844;53.360;9.738;2023-06-14T10:06:10;7.47;;;2.30;;
7605;SDS011;3844;53.360;9.738;2023-06-14T10:08:15;4.80;;;1.92;;
7605;SDS011;3844;53.360;9.738;2023-06-14T10:10:18;4.90;;;1.90;;
7605;SDS011;3844;53.360;9.738;2023-06-14T10:12:19;4.90;;;1.98;;
7605;SDS011;3844;53.360;9.738;2023-06-14T10:14:21;5.85;;;2.20;;
7605;SDS011;3844;53.360;9.738;2023-06-14T10:16:32;8.98;;;2.33;;
7605;SDS011;3844;53.360;9.738;2023-06-14T10:21:22;7.00;;;2.17;;
7605;SDS011;3844;53.360;9.738;2023-06-14T10:23:38;6.32;;;1.83;;
7605;SDS011;3844;53.360;9.738;2023-06-14T10:25:42;4.85;;;2.17;;
7605;SDS011;3844;53.360;9.738;2023-06-14T10:27:44;6.97;;;2.20;;
7605;SDS011;3844;53.360;9.738;2023-06-14T10:31:55;6.82;;;2.10;;
7605;SDS011;3844;53.360;9.738;2023-06-14T10:33:57;6.53;;;2.33;;
7605;SDS011;3844;53.360;9.738;2023-06-14T10:38:35;7.22;;;2.22;;
7605;SDS011;3844;53.360;9.738;2023-06-14T10:42:38;6.15;;;2.00;;
7605;SDS011;3844;53.360;9.738;2023-06-14T10:44:53;6.38;;;2.45;;
7605;SDS011;3844;53.360;9.738;2023-06-14T10:47:01;5.20;;;2.10;;
7605;SDS011;3844;53.360;9.738;2023-06-14T10:49:06;5.78;;;2.10;;
7605;SDS011;3844;53.360;9.738;2023-06-14T10:51:13;5.07;;;2.05;;
7605;SDS011;3844;53.360;9.738;2023-06-14T10:53:22;4.32;;;2.10;;
7605;SDS011;3844;53.360;9.738;2023-06-14T10:55:24;6.30;;;2.22;;
7605;SDS011;3844;53.360;9.738;2023-06-14T10:57:25;5.50;;;2.10;;
7605;SDS011;3844;53.360;9.738;2023-06-14T10:59:25;6.45;;;2.00;;
7605;SDS011;3844;53.360;9.738;2023-06-14T11:01:35;5.00;;;2.22;;
7605;SDS011;3844;53.360;9.738;2023-06-14T11:03:51;5.40;;;2.00;;
7605;SDS011;3844;53.360;9.738;2023-06-14T11:05:56;5.15;;;2.15;;
7605;SDS011;3844;53.360;9.738;2023-06-14T11:10:38;5.70;;;2.00;;
7605;SDS011;3844;53.360;9.738;2023-06-14T11:12:40;5.13;;;2.00;;
7605;SDS011;3844;53.360;9.738;2023-06-14T11:14:42;5.70;;;2.10;;
7605;SDS011;3844;53.360;9.738;2023-06-14T11:16:47;5.40;;;2.15;;
7605;SDS011;3844;53.360;9.738;2023-06-14T11:18:49;5.25;;;2.20;;
7605;SDS011;3844;53.360;9.738;2023-06-14T11:20:50;6.88;;;2.22;;
7605;SDS011;3844;53.360;9.738;2023-06-14T11:22:51;5.00;;;2.10;;
7605;SDS011;3844;53.360;9.738;2023-06-14T11:24:53;7.45;;;2.22;;
7605;SDS011;3844;53.360;9.738;2023-06-14T11:26:54;7.15;;;2.38;;
7605;SDS011;3844;53.360;9.738;2023-06-14T11:28:57;6.95;;;2.28;;
7605;SDS011;3844;53.360;9.738;2023-06-14T11:31:00;6.38;;;2.15;;
7605;SDS011;3844;53.360;9.738;2023-06-14T11:33:01;6.03;;;2.10;;
7605;SDS011;3844;53.360;9.738;2023-06-14T11:35:02;5.20;;;2.20;;
7605;SDS011;3844;53.360;9.738;2023-06-14T11:37:05;5.38;;;2.10;;
7605;SDS011;3844;53.360;9.738;2023-06-14T11:39:06;5.60;;;2.10;;
7605;SDS011;3844;53.360;9.738;2023-06-14T11:41:07;4.88;;;2.13;;
7605;SDS011;3844;53.360;9.738;2023-06-14T11:43:07;4.45;;;1.77;;
7605;SDS011;3844;53.360;9.738;2023-06-14T11:45:09;5.88;;;2.20;;
7605;SDS011;3844;53.360;9.738;2023-06-14T11:49:12;4.57;;;2.20;;
7605;SDS011;3844;53.360;9.738;2023-06-14T11:51:13;3.72;;;1.90;;
7605;SDS011;3844;53.360;9.738;2023-06-14T11:53:14;5.28;;;2.13;;
7605;SDS011;3844;53.360;9.738;2023-06-14T11:55:17;5.85;;;2.25;;
7605;SDS011;3844;53.360;9.738;2023-06-14T11:57:18;4.57;;;2.17;;
7605;SDS011;3844;53.360;9.738;2023-06-14T11:59:20;5.63;;;2.13;;
7605;SDS011;3844;53.360;9.738;2023-06-14T12:01:21;5.65;;;2.28;;
7605;SDS011;3844;53.360;9.738;2023-06-14T12:03:22;4.55;;;1.95;;
7605;SDS011;3844;53.360;9.738;2023-06-14T12:05:25;5.75;;;2.10;;
7605;SDS011;3844;53.360;9.738;2023-06-14T12:07:26;4.82;;;2.20;;
7605;SDS011;3844;53.360;9.738;2023-06-14T12:09:28;4.68;;;2.08;;
7605;SDS011;3844;53.360;9.738;2023-06-14T12:11:33;6.18;;;2.20;;
7605;SDS011;3844;53.360;9.738;2023-06-14T12:13:37;4.30;;;2.20;;
7605;SDS011;3844;53.360;9.738;2023-06-14T12:15:40;5.75;;;2.20;;
7605;SDS011;3844;53.360;9.738;2023-06-14T12:17:41;6.00;;;2.17;;
7605;SDS011;3844;53.360;9.738;2023-06-14T12:19:43;4.55;;;2.13;;
7605;SDS011;3844;53.360;9.738;2023-06-14T12:23:51;6.25;;;2.10;;
7605;SDS011;3844;53.360;9.738;2023-06-14T12:25:52;5.70;;;2.33;;
7605;SDS011;3844;53.360;9.738;2023-06-14T12:27:54;5.15;;;2.00;;
7605;SDS011;3844;53.360;9.738;2023-06-14T12:30:05;5.27;;;2.00;;
7605;SDS011;3844;53.360;9.738;2023-06-14T12:32:07;7.53;;;2.20;;
7605;SDS011;3844;53.360;9.738;2023-06-14T12:34:08;5.20;;;2.10;;
7605;SDS011;3844;53.360;9.738;2023-06-14T12:36:10;8.25;;;2.33;;
7605;SDS011;3844;53.360;9.738;2023-06-14T12:38:11;5.63;;;1.92;;
7605;SDS011;3844;53.360;9.738;2023-06-14T12:40:12;6.55;;;2.15;;
7605;SDS011;3844;53.360;9.738;2023-06-14T12:42:13;7.03;;;2.00;;
7605;SDS011;3844;53.360;9.738;2023-06-14T12:44:15;7.10;;;2.00;;
7605;SDS011;3844;53.360;9.738;2023-06-14T12:46:16;7.60;;;2.20;;
7605;SDS011;3844;53.360;9.738;2023-06-14T12:48:17;6.35;;;2.17;;
7605;SDS011;3844;53.360;9.738;2023-06-14T12:50:18;4.40;;;2.20;;
7605;SDS011;3844;53.360;9.738;2023-06-14T12:52:18;4.30;;;2.10;;
7605;SDS011;3844;53.360;9.738;2023-06-14T12:54:19;4.55;;;2.10;;
7605;SDS011;3844;53.360;9.738;2023-06-14T12:56:22;5.00;;;2.20;;
7605;SDS011;3844;53.360;9.738;2023-06-14T12:58:23;6.85;;;2.30;;
7605;SDS011;3844;53.360;9.738;2023-06-14T13:00:24;6.35;;;2.25;;
7605;SDS011;3844;53.360;9.738;2023-06-14T13:02:29;7.13;;;2.15;;
7605;SDS011;3844;53.360;9.738;2023-06-14T13:04:31;4.45;;;2.00;;
7605;SDS011;3844;53.360;9.738;2023-06-14T13:06:32;6.28;;;2.30;;